AMX4015 MMMY-MMGL
Flight info
| Callsign | AMX4015 |
|---|---|
| Flight time | 1h 10m |
| Altitude | 36000 |
| Route | URTOB1A URTOB UJ11 MEZCA MEZCA1B |
| Aircraft | B738/M-SDE2E3FGHIRWXY/LB1 |
Departure
| Time | 2026-04-22 02:23 |
|---|---|
| Airport | Monterrey International Airport (MMMY) |
Arrival
| Time | 2026-04-22 03:33 |
|---|---|
| Airport | Guadalajara International Airport (MMGL) |
| Time | Latitude | Longitude | Altitude | Speed | Heading |
|---|---|---|---|---|---|
| 2026-04-22 01:28 | 25.77589 | -100.11075 | 1279 ft | 0 kts | 248° |
| 2026-04-22 02:04 | 25.77589 | -100.11074 | 1270 ft | 2 kts | 248° |
| 2026-04-22 02:05 | 25.77598 | -100.11047 | 1279 ft | 4 kts | 252° |
| 2026-04-22 02:05 | 25.77606 | -100.11018 | 1282 ft | 4 kts | 257° |
| 2026-04-22 02:05 | 25.77610 | -100.10989 | 1281 ft | 4 kts | 271° |
| 2026-04-22 02:05 | 25.77605 | -100.10962 | 1282 ft | 4 kts | 317° |
| 2026-04-22 02:06 | 25.77599 | -100.10957 | 1282 ft | 0 kts | 342° |
| 2026-04-22 02:10 | 25.77600 | -100.10957 | 1279 ft | 1 kts | 342° |
| 2026-04-22 02:10 | 25.77614 | -100.10965 | 1280 ft | 4 kts | 328° |
| 2026-04-22 02:10 | 25.77647 | -100.10993 | 1279 ft | 8 kts | 316° |
| 2026-04-22 02:10 | 25.77687 | -100.11055 | 1280 ft | 12 kts | 302° |
| 2026-04-22 02:11 | 25.77739 | -100.11131 | 1280 ft | 8 kts | 339° |
| 2026-04-22 02:11 | 25.77794 | -100.11110 | 1280 ft | 10 kts | 31° |
| 2026-04-22 02:11 | 25.77857 | -100.11108 | 1280 ft | 10 kts | 312° |
| 2026-04-22 02:11 | 25.77892 | -100.11168 | 1280 ft | 6 kts | 301° |
| 2026-04-22 02:12 | 25.77901 | -100.11185 | 1280 ft | 2 kts | 302° |
| 2026-04-22 02:12 | 25.77915 | -100.11209 | 1280 ft | 5 kts | 302° |
| 2026-04-22 02:12 | 25.77941 | -100.11255 | 1280 ft | 9 kts | 302° |
| 2026-04-22 02:12 | 25.77979 | -100.11325 | 1280 ft | 12 kts | 301° |
| 2026-04-22 02:13 | 25.78028 | -100.11415 | 1280 ft | 12 kts | 301° |
| 2026-04-22 02:13 | 25.78075 | -100.11503 | 1280 ft | 14 kts | 301° |
| 2026-04-22 02:13 | 25.78124 | -100.11591 | 1280 ft | 12 kts | 301° |
| 2026-04-22 02:13 | 25.78153 | -100.11643 | 1280 ft | 9 kts | 302° |
| 2026-04-22 02:14 | 25.78186 | -100.11703 | 1280 ft | 9 kts | 301° |
| 2026-04-22 02:14 | 25.78210 | -100.11746 | 1280 ft | 0 kts | 301° |
| 2026-04-22 02:15 | 25.78217 | -100.11760 | 1280 ft | 3 kts | 301° |
| 2026-04-22 02:15 | 25.78229 | -100.11783 | 1280 ft | 6 kts | 301° |
| 2026-04-22 02:15 | 25.78260 | -100.11806 | 1280 ft | 3 kts | 357° |
| 2026-04-22 02:16 | 25.78275 | -100.11800 | 1280 ft | 0 kts | 24° |
| 2026-04-22 02:19 | 25.78276 | -100.11800 | 1280 ft | 2 kts | 24° |
| 2026-04-22 02:19 | 25.78307 | -100.11781 | 1281 ft | 0 kts | 29° |
| 2026-04-22 02:20 | 25.78350 | -100.11755 | 1281 ft | 11 kts | 30° |
| 2026-04-22 02:20 | 25.78403 | -100.11705 | 1280 ft | 10 kts | 73° |
| 2026-04-22 02:21 | 25.78396 | -100.11679 | 1280 ft | 0 kts | 120° |
| 2026-04-22 02:23 | 25.78360 | -100.11612 | 1280 ft | 44 kts | 120° |
| 2026-04-22 02:23 | 25.78035 | -100.11027 | 1280 ft | 131 kts | 122° |
| 2026-04-22 02:23 | 25.77440 | -100.09945 | 1430 ft | 190 kts | 122° |
| 2026-04-22 02:23 | 25.76681 | -100.08611 | 2192 ft | 212 kts | 123° |
| 2026-04-22 02:24 | 25.75912 | -100.07239 | 3380 ft | 205 kts | 120° |
| 2026-04-22 02:24 | 25.75181 | -100.05787 | 3955 ft | 229 kts | 120° |
| 2026-04-22 02:24 | 25.74356 | -100.04138 | 4305 ft | 255 kts | 120° |
| 2026-04-22 02:24 | 25.73472 | -100.02398 | 5133 ft | 261 kts | 121° |
| 2026-04-22 02:25 | 25.72564 | -100.00634 | 5947 ft | 267 kts | 120° |
| 2026-04-22 02:25 | 25.71624 | -99.98819 | 6722 ft | 274 kts | 120° |
| 2026-04-22 02:25 | 25.70650 | -99.96980 | 7439 ft | 281 kts | 125° |
| 2026-04-22 02:25 | 25.69234 | -99.95507 | 8101 ft | 288 kts | 152° |
| 2026-04-22 02:26 | 25.67321 | -99.94866 | 8835 ft | 291 kts | 179° |
| 2026-04-22 02:26 | 25.65346 | -99.95255 | 9592 ft | 291 kts | 207° |
| 2026-04-22 02:26 | 25.63716 | -99.96563 | 10324 ft | 292 kts | 228° |
| 2026-04-22 02:26 | 25.62413 | -99.98384 | 10581 ft | 313 kts | 238° |
| 2026-04-22 02:27 | 25.61229 | -100.00514 | 10765 ft | 335 kts | 242° |
| 2026-04-22 02:27 | 25.60020 | -100.02819 | 10914 ft | 356 kts | 242° |
| 2026-04-22 02:27 | 25.58737 | -100.05252 | 11040 ft | 375 kts | 241° |
| 2026-04-22 02:27 | 25.57389 | -100.07806 | 11269 ft | 389 kts | 241° |
| 2026-04-22 02:28 | 25.56011 | -100.10414 | 11766 ft | 392 kts | 242° |
| 2026-04-22 02:28 | 25.54633 | -100.13019 | 12396 ft | 392 kts | 242° |
| 2026-04-22 02:28 | 25.53257 | -100.15619 | 13035 ft | 392 kts | 242° |
| 2026-04-22 02:28 | 25.51874 | -100.18234 | 13598 ft | 394 kts | 242° |
| 2026-04-22 02:29 | 25.50487 | -100.20858 | 14155 ft | 395 kts | 242° |
| 2026-04-22 02:29 | 25.49097 | -100.23484 | 14627 ft | 398 kts | 242° |
| 2026-04-22 02:29 | 25.47690 | -100.26143 | 15072 ft | 400 kts | 242° |
| 2026-04-22 02:29 | 25.46283 | -100.28802 | 15602 ft | 401 kts | 242° |
| 2026-04-22 02:30 | 25.44867 | -100.31473 | 16101 ft | 403 kts | 241° |
| 2026-04-22 02:30 | 25.43443 | -100.34158 | 16598 ft | 403 kts | 242° |
| 2026-04-22 02:30 | 25.42018 | -100.36846 | 17039 ft | 406 kts | 241° |
| 2026-04-22 02:30 | 25.40588 | -100.39539 | 17524 ft | 408 kts | 241° |
| 2026-04-22 02:31 | 25.39124 | -100.42244 | 17925 ft | 411 kts | 238° |
| 2026-04-22 02:31 | 25.37365 | -100.44761 | 18373 ft | 415 kts | 230° |
| 2026-04-22 02:31 | 25.35285 | -100.46980 | 18779 ft | 419 kts | 221° |
| 2026-04-22 02:31 | 25.32979 | -100.48973 | 19170 ft | 421 kts | 221° |
| 2026-04-22 02:32 | 25.30676 | -100.50927 | 19457 ft | 424 kts | 220° |
| 2026-04-22 02:32 | 25.28332 | -100.52913 | 19778 ft | 427 kts | 221° |
| 2026-04-22 02:32 | 25.25975 | -100.54920 | 20118 ft | 429 kts | 221° |
| 2026-04-22 02:32 | 25.23608 | -100.56945 | 20466 ft | 431 kts | 221° |
| 2026-04-22 02:33 | 25.21237 | -100.58981 | 20786 ft | 433 kts | 221° |
| 2026-04-22 02:33 | 25.18850 | -100.61034 | 21109 ft | 435 kts | 221° |
| 2026-04-22 02:33 | 25.16463 | -100.63089 | 21435 ft | 436 kts | 221° |
| 2026-04-22 02:33 | 25.14066 | -100.65153 | 21743 ft | 438 kts | 221° |
| 2026-04-22 02:34 | 25.11655 | -100.67228 | 22028 ft | 440 kts | 221° |
| 2026-04-22 02:34 | 25.09228 | -100.69316 | 22271 ft | 443 kts | 221° |
| 2026-04-22 02:34 | 25.06798 | -100.71405 | 22553 ft | 444 kts | 221° |
| 2026-04-22 02:34 | 25.04356 | -100.73502 | 22854 ft | 445 kts | 221° |
| 2026-04-22 02:35 | 25.01907 | -100.75605 | 23141 ft | 446 kts | 222° |
| 2026-04-22 02:35 | 24.99447 | -100.77715 | 23400 ft | 448 kts | 222° |
| 2026-04-22 02:35 | 24.96983 | -100.79829 | 23634 ft | 450 kts | 222° |
| 2026-04-22 02:35 | 24.94504 | -100.81954 | 23841 ft | 451 kts | 222° |
| 2026-04-22 02:36 | 24.92029 | -100.84075 | 24041 ft | 453 kts | 222° |
| 2026-04-22 02:36 | 24.89536 | -100.86209 | 24254 ft | 453 kts | 222° |
| 2026-04-22 02:36 | 24.87047 | -100.88340 | 24460 ft | 454 kts | 222° |
| 2026-04-22 02:36 | 24.84544 | -100.90482 | 24643 ft | 456 kts | 222° |
| 2026-04-22 02:37 | 24.82065 | -100.92601 | 24823 ft | 458 kts | 222° |
| 2026-04-22 02:37 | 24.79514 | -100.94780 | 25018 ft | 459 kts | 222° |
| 2026-04-22 02:37 | 24.76988 | -100.96937 | 25199 ft | 460 kts | 222° |
| 2026-04-22 02:37 | 24.74460 | -100.99094 | 25372 ft | 461 kts | 222° |
| 2026-04-22 02:38 | 24.71919 | -101.01262 | 25554 ft | 462 kts | 222° |
| 2026-04-22 02:38 | 24.69375 | -101.03432 | 25716 ft | 463 kts | 222° |
| 2026-04-22 02:38 | 24.66832 | -101.05599 | 25861 ft | 464 kts | 222° |
| 2026-04-22 02:38 | 24.64282 | -101.07772 | 25988 ft | 465 kts | 222° |
| 2026-04-22 02:39 | 24.61729 | -101.09946 | 26143 ft | 464 kts | 222° |
| 2026-04-22 02:39 | 24.59173 | -101.12119 | 26395 ft | 463 kts | 222° |
| 2026-04-22 02:39 | 24.56631 | -101.14281 | 26682 ft | 461 kts | 222° |
| 2026-04-22 02:39 | 24.54098 | -101.16434 | 26938 ft | 460 kts | 222° |
| 2026-04-22 02:40 | 24.51574 | -101.18579 | 27165 ft | 459 kts | 222° |
| 2026-04-22 02:40 | 24.49081 | -101.20697 | 27388 ft | 458 kts | 222° |
| 2026-04-22 02:40 | 24.46560 | -101.22838 | 27643 ft | 457 kts | 222° |
| 2026-04-22 02:40 | 24.44045 | -101.24972 | 27881 ft | 456 kts | 222° |
| 2026-04-22 02:41 | 24.41535 | -101.27101 | 28128 ft | 455 kts | 222° |
| 2026-04-22 02:41 | 24.39027 | -101.29227 | 28401 ft | 454 kts | 223° |
| 2026-04-22 02:41 | 24.36530 | -101.31342 | 28672 ft | 453 kts | 223° |
| 2026-04-22 02:41 | 24.34037 | -101.33453 | 28926 ft | 452 kts | 223° |
| 2026-04-22 02:42 | 24.31551 | -101.35558 | 29183 ft | 452 kts | 223° |
| 2026-04-22 02:42 | 24.29061 | -101.37664 | 29451 ft | 451 kts | 223° |
| 2026-04-22 02:42 | 24.26586 | -101.39758 | 29725 ft | 450 kts | 223° |
| 2026-04-22 02:42 | 24.24106 | -101.41854 | 30004 ft | 449 kts | 223° |
| 2026-04-22 02:43 | 24.21639 | -101.43938 | 30246 ft | 448 kts | 223° |
| 2026-04-22 02:43 | 24.19174 | -101.46019 | 30508 ft | 447 kts | 223° |
| 2026-04-22 02:43 | 24.16557 | -101.47961 | 30749 ft | 451 kts | 216° |
| 2026-04-22 02:43 | 24.13740 | -101.49518 | 31001 ft | 456 kts | 208° |
| 2026-04-22 02:44 | 24.10714 | -101.50658 | 31269 ft | 460 kts | 204° |
| 2026-04-22 02:44 | 24.07665 | -101.51690 | 31554 ft | 459 kts | 203° |
| 2026-04-22 02:44 | 24.04626 | -101.52705 | 31807 ft | 458 kts | 204° |
| 2026-04-22 02:44 | 24.01534 | -101.53744 | 32073 ft | 457 kts | 204° |
| 2026-04-22 02:45 | 23.98499 | -101.54776 | 32366 ft | 455 kts | 204° |
| 2026-04-22 02:45 | 23.95485 | -101.55810 | 32660 ft | 453 kts | 204° |
| 2026-04-22 02:45 | 23.92480 | -101.56847 | 32942 ft | 452 kts | 204° |
| 2026-04-22 02:45 | 23.89486 | -101.57884 | 33210 ft | 451 kts | 204° |
| 2026-04-22 02:46 | 23.86500 | -101.58919 | 33494 ft | 450 kts | 204° |
| 2026-04-22 02:46 | 23.83516 | -101.59953 | 33784 ft | 449 kts | 204° |
| 2026-04-22 02:46 | 23.80639 | -101.60948 | 34042 ft | 448 kts | 204° |
| 2026-04-22 02:46 | 23.77673 | -101.61974 | 34266 ft | 447 kts | 204° |
| 2026-04-22 02:47 | 23.74718 | -101.62994 | 34485 ft | 446 kts | 204° |
| 2026-04-22 02:47 | 23.71756 | -101.64017 | 34721 ft | 444 kts | 204° |
| 2026-04-22 02:47 | 23.68779 | -101.65044 | 34955 ft | 443 kts | 204° |
| 2026-04-22 02:47 | 23.65833 | -101.66061 | 35127 ft | 443 kts | 204° |
| 2026-04-22 02:48 | 23.62932 | -101.67062 | 35276 ft | 444 kts | 204° |
| 2026-04-22 02:48 | 23.59988 | -101.68077 | 35458 ft | 443 kts | 204° |
| 2026-04-22 02:48 | 23.57057 | -101.69085 | 35669 ft | 442 kts | 204° |
| 2026-04-22 02:48 | 23.54129 | -101.70091 | 35867 ft | 441 kts | 204° |
| 2026-04-22 02:49 | 23.51207 | -101.71096 | 35977 ft | 441 kts | 204° |
| 2026-04-22 02:49 | 23.45299 | -101.73127 | 35979 ft | 441 kts | 204° |
| 2026-04-22 02:50 | 23.39453 | -101.75134 | 35982 ft | 440 kts | 204° |
| 2026-04-22 02:50 | 23.33620 | -101.77128 | 35984 ft | 439 kts | 203° |
| 2026-04-22 02:51 | 23.28553 | -101.78853 | 35986 ft | 439 kts | 203° |
| 2026-04-22 02:51 | 23.22742 | -101.80830 | 35994 ft | 439 kts | 203° |
| 2026-04-22 02:52 | 23.16922 | -101.82809 | 35992 ft | 438 kts | 203° |
| 2026-04-22 02:52 | 23.11097 | -101.84789 | 35996 ft | 438 kts | 203° |
| 2026-04-22 02:53 | 23.05274 | -101.86767 | 36003 ft | 438 kts | 203° |
| 2026-04-22 02:53 | 22.99449 | -101.88743 | 36001 ft | 439 kts | 203° |
| 2026-04-22 02:54 | 22.93575 | -101.90735 | 35986 ft | 439 kts | 203° |
| 2026-04-22 02:54 | 22.87741 | -101.92710 | 36005 ft | 439 kts | 203° |
| 2026-04-22 02:55 | 22.81900 | -101.94687 | 36003 ft | 439 kts | 203° |
| 2026-04-22 02:55 | 22.75982 | -101.96688 | 36004 ft | 440 kts | 203° |
| 2026-04-22 02:56 | 22.70176 | -101.98650 | 36009 ft | 440 kts | 203° |
| 2026-04-22 02:56 | 22.64295 | -102.00634 | 36011 ft | 440 kts | 202° |
| 2026-04-22 02:57 | 22.58436 | -102.02603 | 36015 ft | 441 kts | 202° |
| 2026-04-22 02:57 | 22.52412 | -102.04625 | 36014 ft | 441 kts | 202° |
| 2026-04-22 02:58 | 22.46551 | -102.06606 | 36018 ft | 442 kts | 203° |
| 2026-04-22 02:58 | 22.40687 | -102.08606 | 36026 ft | 442 kts | 202° |
| 2026-04-22 02:59 | 22.34894 | -102.10574 | 36022 ft | 443 kts | 202° |
| 2026-04-22 02:59 | 22.28890 | -102.12590 | 36022 ft | 443 kts | 202° |
| 2026-04-22 03:00 | 22.22946 | -102.14580 | 36033 ft | 444 kts | 202° |
| 2026-04-22 03:00 | 22.16964 | -102.16583 | 36038 ft | 445 kts | 202° |
| 2026-04-22 03:01 | 22.11846 | -102.18297 | 36031 ft | 445 kts | 202° |
| 2026-04-22 03:01 | 22.05965 | -102.20265 | 36038 ft | 446 kts | 202° |
| 2026-04-22 03:02 | 22.00147 | -102.22211 | 36090 ft | 446 kts | 202° |
| 2026-04-22 03:02 | 21.94221 | -102.24190 | 36156 ft | 446 kts | 202° |
| 2026-04-22 03:03 | 21.88129 | -102.26224 | 36227 ft | 446 kts | 202° |
| 2026-04-22 03:03 | 21.82224 | -102.28194 | 36288 ft | 446 kts | 202° |
| 2026-04-22 03:04 | 21.76331 | -102.30156 | 36322 ft | 440 kts | 202° |
| 2026-04-22 03:04 | 21.70648 | -102.32539 | 36225 ft | 433 kts | 212° |
| 2026-04-22 03:04 | 21.68113 | -102.34288 | 35604 ft | 432 kts | 221° |
| 2026-04-22 03:05 | 21.65787 | -102.36265 | 34970 ft | 431 kts | 222° |
| 2026-04-22 03:05 | 21.63446 | -102.38281 | 34257 ft | 433 kts | 223° |
| 2026-04-22 03:05 | 21.61081 | -102.40314 | 33407 ft | 436 kts | 223° |
| 2026-04-22 03:05 | 21.58706 | -102.42343 | 32604 ft | 437 kts | 222° |
| 2026-04-22 03:06 | 21.56317 | -102.44371 | 31780 ft | 439 kts | 222° |
| 2026-04-22 03:06 | 21.53915 | -102.46401 | 30956 ft | 441 kts | 222° |
| 2026-04-22 03:06 | 21.51488 | -102.48447 | 30047 ft | 445 kts | 222° |
| 2026-04-22 03:06 | 21.49042 | -102.50507 | 29024 ft | 448 kts | 222° |
| 2026-04-22 03:07 | 21.46582 | -102.52576 | 28022 ft | 449 kts | 221° |
| 2026-04-22 03:07 | 21.44117 | -102.54649 | 27014 ft | 452 kts | 221° |
| 2026-04-22 03:07 | 21.41635 | -102.56736 | 26002 ft | 455 kts | 221° |
| 2026-04-22 03:07 | 21.39158 | -102.58818 | 25276 ft | 452 kts | 221° |
| 2026-04-22 03:08 | 21.36680 | -102.60899 | 24550 ft | 450 kts | 221° |
| 2026-04-22 03:08 | 21.34222 | -102.62964 | 23821 ft | 448 kts | 221° |
| 2026-04-22 03:08 | 21.31774 | -102.65019 | 23019 ft | 445 kts | 220° |
| 2026-04-22 03:08 | 21.29349 | -102.67053 | 22413 ft | 439 kts | 220° |
| 2026-04-22 03:09 | 21.26946 | -102.69068 | 21841 ft | 442 kts | 220° |
| 2026-04-22 03:09 | 21.24497 | -102.71124 | 21254 ft | 449 kts | 220° |
| 2026-04-22 03:09 | 21.22039 | -102.73186 | 20658 ft | 448 kts | 219° |
| 2026-04-22 03:09 | 21.19587 | -102.75239 | 20084 ft | 444 kts | 219° |
| 2026-04-22 03:10 | 21.17163 | -102.77267 | 19502 ft | 442 kts | 219° |
| 2026-04-22 03:10 | 21.14730 | -102.79272 | 18908 ft | 441 kts | 216° |
| 2026-04-22 03:10 | 21.11996 | -102.80745 | 18159 ft | 445 kts | 198° |
| 2026-04-22 03:10 | 21.08964 | -102.81296 | 17433 ft | 442 kts | 181° |
| 2026-04-22 03:11 | 21.05921 | -102.80984 | 16889 ft | 436 kts | 172° |
| 2026-04-22 03:11 | 21.02953 | -102.80477 | 16275 ft | 430 kts | 172° |
| 2026-04-22 03:11 | 21.00014 | -102.79996 | 15720 ft | 424 kts | 172° |
| 2026-04-22 03:11 | 20.97111 | -102.79552 | 15168 ft | 417 kts | 172° |
| 2026-04-22 03:12 | 20.94262 | -102.79106 | 14716 ft | 409 kts | 172° |
| 2026-04-22 03:12 | 20.88869 | -102.78231 | 14507 ft | 377 kts | 172° |
| 2026-04-22 03:12 | 20.86323 | -102.77820 | 14414 ft | 363 kts | 172° |
| 2026-04-22 03:13 | 20.83870 | -102.77425 | 14329 ft | 350 kts | 172° |
| 2026-04-22 03:13 | 20.81510 | -102.77047 | 14252 ft | 337 kts | 172° |
| 2026-04-22 03:13 | 20.79225 | -102.76680 | 14182 ft | 326 kts | 172° |
| 2026-04-22 03:13 | 20.77019 | -102.76326 | 14100 ft | 315 kts | 172° |
| 2026-04-22 03:14 | 20.74887 | -102.75984 | 13985 ft | 306 kts | 172° |
| 2026-04-22 03:14 | 20.72812 | -102.75651 | 13810 ft | 296 kts | 171° |
| 2026-04-22 03:14 | 20.70891 | -102.75006 | 13536 ft | 286 kts | 149° |
| 2026-04-22 03:14 | 20.69290 | -102.73811 | 13264 ft | 278 kts | 143° |
| 2026-04-22 03:15 | 20.67765 | -102.72579 | 12959 ft | 271 kts | 143° |
| 2026-04-22 03:15 | 20.66290 | -102.71381 | 12806 ft | 261 kts | 143° |
| 2026-04-22 03:15 | 20.64850 | -102.70216 | 12684 ft | 260 kts | 143° |
| 2026-04-22 03:15 | 20.63406 | -102.69055 | 12569 ft | 260 kts | 143° |
| 2026-04-22 03:16 | 20.61966 | -102.67901 | 12446 ft | 259 kts | 143° |
| 2026-04-22 03:16 | 20.60521 | -102.66747 | 12320 ft | 259 kts | 143° |
| 2026-04-22 03:16 | 20.59082 | -102.65601 | 12198 ft | 257 kts | 144° |
| 2026-04-22 03:16 | 20.57654 | -102.64463 | 12078 ft | 255 kts | 144° |
| 2026-04-22 03:17 | 20.56238 | -102.63337 | 11953 ft | 253 kts | 143° |
| 2026-04-22 03:17 | 20.54781 | -102.62306 | 11810 ft | 248 kts | 161° |
| 2026-04-22 03:17 | 20.53139 | -102.61933 | 11830 ft | 237 kts | 174° |
| 2026-04-22 03:17 | 20.51517 | -102.61731 | 12121 ft | 236 kts | 175° |
| 2026-04-22 03:18 | 20.49825 | -102.61529 | 12494 ft | 252 kts | 175° |
| 2026-04-22 03:18 | 20.48085 | -102.61318 | 12844 ft | 255 kts | 174° |
| 2026-04-22 03:18 | 20.46303 | -102.61098 | 12835 ft | 259 kts | 174° |
| 2026-04-22 03:18 | 20.44514 | -102.60874 | 12832 ft | 259 kts | 174° |
| 2026-04-22 03:19 | 20.42727 | -102.60648 | 12831 ft | 258 kts | 174° |
| 2026-04-22 03:19 | 20.40959 | -102.60424 | 12825 ft | 254 kts | 174° |
| 2026-04-22 03:19 | 20.39215 | -102.60203 | 12832 ft | 252 kts | 174° |
| 2026-04-22 03:19 | 20.37476 | -102.59982 | 12834 ft | 251 kts | 174° |
| 2026-04-22 03:20 | 20.35746 | -102.59762 | 12834 ft | 250 kts | 174° |
| 2026-04-22 03:20 | 20.34020 | -102.59693 | 12819 ft | 249 kts | 194° |
| 2026-04-22 03:20 | 20.32405 | -102.60315 | 12862 ft | 250 kts | 205° |
| 2026-04-22 03:20 | 20.30908 | -102.61248 | 12823 ft | 250 kts | 230° |
| 2026-04-22 03:21 | 20.30201 | -102.62845 | 12850 ft | 234 kts | 268° |
| 2026-04-22 03:21 | 20.30311 | -102.64524 | 12835 ft | 224 kts | 283° |
| 2026-04-22 03:21 | 20.30688 | -102.66130 | 12812 ft | 225 kts | 286° |
| 2026-04-22 03:21 | 20.31116 | -102.67746 | 12741 ft | 229 kts | 287° |
| 2026-04-22 03:22 | 20.31570 | -102.69438 | 12203 ft | 247 kts | 286° |
| 2026-04-22 03:22 | 20.32052 | -102.71251 | 11668 ft | 258 kts | 286° |
| 2026-04-22 03:22 | 20.32526 | -102.73057 | 11561 ft | 250 kts | 286° |
| 2026-04-22 03:22 | 20.32985 | -102.74826 | 11180 ft | 251 kts | 286° |
| 2026-04-22 03:23 | 20.33450 | -102.76628 | 10813 ft | 248 kts | 286° |
| 2026-04-22 03:23 | 20.33898 | -102.78374 | 10482 ft | 246 kts | 286° |
| 2026-04-22 03:23 | 20.34346 | -102.80126 | 10128 ft | 244 kts | 286° |
| 2026-04-22 03:23 | 20.34789 | -102.81865 | 9769 ft | 242 kts | 285° |
| 2026-04-22 03:24 | 20.35228 | -102.83591 | 9403 ft | 241 kts | 285° |
| 2026-04-22 03:24 | 20.35666 | -102.85315 | 9027 ft | 240 kts | 285° |
| 2026-04-22 03:24 | 20.36096 | -102.87009 | 8852 ft | 230 kts | 285° |
| 2026-04-22 03:24 | 20.36499 | -102.88598 | 8814 ft | 214 kts | 285° |
| 2026-04-22 03:25 | 20.36879 | -102.90100 | 8804 ft | 206 kts | 285° |
| 2026-04-22 03:25 | 20.37249 | -102.91561 | 8806 ft | 203 kts | 285° |
| 2026-04-22 03:25 | 20.37619 | -102.93023 | 8828 ft | 206 kts | 285° |
| 2026-04-22 03:25 | 20.37997 | -102.94514 | 8828 ft | 210 kts | 285° |
| 2026-04-22 03:26 | 20.38378 | -102.96020 | 8816 ft | 210 kts | 285° |
| 2026-04-22 03:26 | 20.38762 | -102.97541 | 8855 ft | 218 kts | 285° |
| 2026-04-22 03:26 | 20.39149 | -102.99103 | 8864 ft | 215 kts | 283° |
| 2026-04-22 03:26 | 20.39500 | -103.00618 | 8854 ft | 205 kts | 287° |
| 2026-04-22 03:27 | 20.39978 | -103.02001 | 8838 ft | 194 kts | 293° |
| 2026-04-22 03:27 | 20.40519 | -103.03290 | 8765 ft | 188 kts | 294° |
| 2026-04-22 03:27 | 20.41057 | -103.04561 | 8703 ft | 189 kts | 294° |
| 2026-04-22 03:27 | 20.41594 | -103.05843 | 8634 ft | 189 kts | 294° |
| 2026-04-22 03:28 | 20.42128 | -103.07120 | 8525 ft | 188 kts | 293° |
| 2026-04-22 03:28 | 20.42657 | -103.08382 | 8388 ft | 184 kts | 293° |
| 2026-04-22 03:28 | 20.43176 | -103.09625 | 8301 ft | 184 kts | 293° |
| 2026-04-22 03:28 | 20.43700 | -103.10876 | 8166 ft | 184 kts | 293° |
| 2026-04-22 03:29 | 20.44215 | -103.12107 | 8012 ft | 179 kts | 293° |
| 2026-04-22 03:29 | 20.44717 | -103.13307 | 7884 ft | 177 kts | 293° |
| 2026-04-22 03:29 | 20.45220 | -103.14508 | 7771 ft | 178 kts | 293° |
| 2026-04-22 03:29 | 20.45727 | -103.15720 | 7598 ft | 179 kts | 293° |
| 2026-04-22 03:30 | 20.46232 | -103.16925 | 7379 ft | 175 kts | 292° |
| 2026-04-22 03:30 | 20.46728 | -103.18108 | 7163 ft | 176 kts | 292° |
| 2026-04-22 03:30 | 20.47224 | -103.19291 | 6960 ft | 175 kts | 292° |
| 2026-04-22 03:30 | 20.47710 | -103.20449 | 6740 ft | 165 kts | 292° |
| 2026-04-22 03:31 | 20.48156 | -103.21514 | 6553 ft | 147 kts | 292° |
| 2026-04-22 03:31 | 20.48549 | -103.22452 | 6321 ft | 136 kts | 292° |
| 2026-04-22 03:31 | 20.48933 | -103.23369 | 6053 ft | 137 kts | 292° |
| 2026-04-22 03:31 | 20.49329 | -103.24316 | 5775 ft | 136 kts | 292° |
| 2026-04-22 03:32 | 20.49705 | -103.25208 | 5666 ft | 131 kts | 292° |
| 2026-04-22 03:32 | 20.50087 | -103.26102 | 5690 ft | 136 kts | 291° |
| 2026-04-22 03:32 | 20.50469 | -103.27006 | 5631 ft | 143 kts | 289° |
| 2026-04-22 03:32 | 20.50869 | -103.27966 | 5329 ft | 138 kts | 291° |
| 2026-04-22 03:33 | 20.51242 | -103.28860 | 5134 ft | 128 kts | 291° |
| 2026-04-22 03:33 | 20.51595 | -103.29697 | 5095 ft | 113 kts | 292° |
| 2026-04-22 03:33 | 20.51799 | -103.30187 | 5026 ft | 100 kts | 291° |
| 2026-04-22 03:33 | 20.52075 | -103.30851 | 5030 ft | 46 kts | 293° |
| 2026-04-22 03:34 | 20.52136 | -103.30997 | 5029 ft | 26 kts | 294° |
| 2026-04-22 03:34 | 20.52235 | -103.31234 | 5030 ft | 40 kts | 294° |
| 2026-04-22 03:34 | 20.52366 | -103.31465 | 5030 ft | 33 kts | 309° |
| 2026-04-22 03:34 | 20.52497 | -103.31578 | 5028 ft | 18 kts | 327° |
| 2026-04-22 03:35 | 20.52536 | -103.31596 | 5028 ft | 0 kts | 4° |
| 2026-04-22 03:35 | 20.52544 | -103.31594 | 5025 ft | 6 kts | 11° |
| 2026-04-22 03:35 | 20.52618 | -103.31564 | 5028 ft | 8 kts | 24° |
| 2026-04-22 03:36 | 20.52722 | -103.31514 | 5028 ft | 20 kts | 24° |
| 2026-04-22 03:36 | 20.52744 | -103.31403 | 5027 ft | 13 kts | 115° |
| 2026-04-22 03:36 | 20.52699 | -103.31299 | 5028 ft | 17 kts | 113° |
| 2026-04-22 03:36 | 20.52648 | -103.31175 | 5026 ft | 20 kts | 114° |
| 2026-04-22 03:37 | 20.52587 | -103.31028 | 5028 ft | 22 kts | 114° |
| 2026-04-22 03:37 | 20.52538 | -103.30912 | 5028 ft | 16 kts | 114° |
| 2026-04-22 03:37 | 20.52491 | -103.30798 | 5028 ft | 17 kts | 114° |
| 2026-04-22 03:37 | 20.52438 | -103.30674 | 5028 ft | 19 kts | 114° |
| 2026-04-22 03:38 | 20.52381 | -103.30537 | 5028 ft | 21 kts | 113° |
| 2026-04-22 03:38 | 20.52320 | -103.30391 | 5028 ft | 22 kts | 114° |
| 2026-04-22 03:38 | 20.52280 | -103.30267 | 5028 ft | 11 kts | 71° |
| 2026-04-22 03:38 | 20.52331 | -103.30233 | 5028 ft | 9 kts | 19° |
| 2026-04-22 03:39 | 20.52390 | -103.30204 | 5028 ft | 10 kts | 50° |
| 2026-04-22 03:39 | 20.52385 | -103.30133 | 5028 ft | 9 kts | 107° |
| 2026-04-22 03:39 | 20.52364 | -103.30065 | 5025 ft | 10 kts | 110° |
| 2026-04-22 03:39 | 20.52338 | -103.29989 | 5028 ft | 12 kts | 110° |
| 2026-04-22 03:40 | 20.52323 | -103.29927 | 5028 ft | 2 kts | 72° |
| 2026-04-22 03:40 | 20.52337 | -103.29915 | 5027 ft | 4 kts | 30° |
| 2026-04-22 03:40 | 20.52364 | -103.29904 | 5028 ft | 3 kts | 19° |
| 2026-04-22 03:40 | 20.52377 | -103.29899 | 5028 ft | 1 kts | 19° |
| 2026-04-22 03:41 | 20.52380 | -103.29898 | 5028 ft | 0 kts | 18° |
| 2026-04-22 03:41 | 20.52382 | -103.29897 | 5028 ft | 0 kts | 19° |